createdAt,value
2018-05-08T00:01:47.864Z,11.50
2018-05-08T00:04:15.382Z,11.50
2018-05-08T00:06:42.937Z,11.50
2018-05-08T00:09:10.434Z,11.50
2018-05-08T00:11:37.969Z,11.40
2018-05-08T00:14:05.514Z,11.40
2018-05-08T00:16:33.185Z,11.40
2018-05-08T00:19:00.692Z,11.40
2018-05-08T00:21:28.638Z,11.40
2018-05-08T00:23:56.137Z,11.30
2018-05-08T00:26:23.701Z,11.20
2018-05-08T00:28:51.209Z,11.20
2018-05-08T00:31:18.778Z,11.20
2018-05-08T00:33:46.301Z,11.20
2018-05-08T00:36:13.831Z,11.20
2018-05-08T00:38:41.381Z,11.30
2018-05-08T00:41:08.904Z,11.20
2018-05-08T00:43:36.441Z,11.20
2018-05-08T00:46:03.972Z,11.20
2018-05-08T00:48:31.515Z,11.10
2018-05-08T00:50:59.044Z,11.10
2018-05-08T00:53:26.679Z,11.10
2018-05-08T00:55:54.186Z,11.10
2018-05-08T00:58:21.718Z,11.10
2018-05-08T01:00:49.226Z,11.20
2018-05-08T01:03:16.759Z,11.10
2018-05-08T01:05:44.294Z,11.10
2018-05-08T01:08:11.835Z,11.10
2018-05-08T01:10:39.737Z,11.00
2018-05-08T01:13:07.298Z,11.00
2018-05-08T01:15:34.944Z,11.10
2018-05-08T01:18:02.451Z,11.10
2018-05-08T01:20:30.041Z,11.10
2018-05-08T01:22:57.569Z,11.00
2018-05-08T01:25:25.097Z,11.00
2018-05-08T01:27:52.630Z,11.00
2018-05-08T01:30:20.165Z,10.90
2018-05-08T01:32:47.729Z,10.90
2018-05-08T01:35:15.391Z,10.90
2018-05-08T01:37:43.051Z,10.80
2018-05-08T01:40:10.600Z,10.80
2018-05-08T01:42:38.113Z,10.80
2018-05-08T01:45:05.625Z,10.80
2018-05-08T01:47:33.180Z,10.80
2018-05-08T01:50:00.681Z,10.70
2018-05-08T01:52:28.279Z,10.70
2018-05-08T01:54:56.154Z,10.60
2018-05-08T01:57:23.699Z,10.70
2018-05-08T01:59:51.216Z,10.60
2018-05-08T02:02:18.746Z,10.50
2018-05-08T02:04:46.437Z,10.40
2018-05-08T02:07:14.004Z,10.20
2018-05-08T02:09:41.910Z,10.00
2018-05-08T02:12:09.445Z,10.00
2018-05-08T02:14:36.955Z,10.00
2018-05-08T02:17:04.513Z,9.90
2018-05-08T02:19:32.013Z,9.90
2018-05-08T02:21:59.744Z,9.90
2018-05-08T02:24:27.653Z,10.00
2018-05-08T02:26:55.273Z,9.90
2018-05-08T02:29:23.205Z,9.90
2018-05-08T02:31:50.727Z,9.90
2018-05-08T02:34:18.260Z,9.90
2018-05-08T02:36:46.165Z,9.90
2018-05-08T02:39:13.920Z,9.90
2018-05-08T02:41:41.419Z,9.90
2018-05-08T02:44:09.443Z,9.90
2018-05-08T02:46:36.941Z,9.90
2018-05-08T02:49:04.870Z,9.90
2018-05-08T02:51:32.381Z,9.90
2018-05-08T02:54:00.060Z,9.90
2018-05-08T02:56:27.561Z,9.90
2018-05-08T02:58:55.104Z,9.80
2018-05-08T03:01:22.608Z,9.80
2018-05-08T03:03:50.273Z,9.70
2018-05-08T03:06:17.935Z,9.70
2018-05-08T03:08:45.449Z,9.70
2018-05-08T03:11:12.974Z,9.70
2018-05-08T03:13:40.505Z,9.70
2018-05-08T03:16:08.189Z,9.70
2018-05-08T03:18:35.688Z,9.70
2018-05-08T03:21:03.625Z,9.70
2018-05-08T03:23:31.122Z,9.70
2018-05-08T03:25:58.649Z,9.60
2018-05-08T03:28:26.145Z,9.70
2018-05-08T03:30:53.693Z,9.60
2018-05-08T03:33:21.322Z,9.60
2018-05-08T03:35:48.856Z,9.60
2018-05-08T03:38:16.373Z,9.50
2018-05-08T03:40:43.943Z,9.50
2018-05-08T03:43:11.811Z,9.50
2018-05-08T03:45:39.472Z,9.40
2018-05-08T03:48:07.123Z,9.40
2018-05-08T03:50:34.627Z,9.40
2018-05-08T03:53:02.154Z,9.40
2018-05-08T03:55:29.703Z,9.40
2018-05-08T03:57:57.361Z,9.40
2018-05-08T04:00:36.595Z,9.40
2018-05-08T04:03:16.001Z,9.50
2018-05-08T04:05:50.161Z,9.50
2018-05-08T04:08:29.476Z,9.50
2018-05-08T04:10:56.949Z,9.50
2018-05-08T04:13:24.671Z,9.60
2018-05-08T04:15:52.167Z,9.60
2018-05-08T04:18:19.694Z,9.60
2018-05-08T04:20:47.244Z,9.60
2018-05-08T04:23:14.800Z,9.60
2018-05-08T04:25:42.340Z,9.70
2018-05-08T04:28:09.897Z,9.70
2018-05-08T04:30:37.417Z,9.60
2018-05-08T04:33:05.117Z,9.40
2018-05-08T04:35:32.627Z,9.20
2018-05-08T04:38:00.239Z,8.90
2018-05-08T04:40:27.768Z,8.80
2018-05-08T04:42:55.349Z,8.90
2018-05-08T04:45:22.908Z,9.00
2018-05-08T04:47:50.412Z,9.20
2018-05-08T04:50:17.969Z,9.40
2018-05-08T04:52:45.988Z,9.40
2018-05-08T04:55:13.506Z,9.50
2018-05-08T04:57:41.393Z,9.20
2018-05-08T05:00:08.969Z,9.20
2018-05-08T05:02:36.475Z,9.20
2018-05-08T05:05:04.063Z,9.30
2018-05-08T05:07:31.713Z,9.40
2018-05-08T05:09:59.293Z,9.60
2018-05-08T05:12:26.830Z,9.90
2018-05-08T05:14:54.402Z,10.10
2018-05-08T05:17:21.895Z,10.40
2018-05-08T05:19:49.613Z,10.70
2018-05-08T05:22:17.149Z,10.90
2018-05-08T05:24:44.713Z,11.20
2018-05-08T05:27:12.309Z,11.40
2018-05-08T05:29:39.809Z,11.60
2018-05-08T05:32:07.343Z,11.80
2018-05-08T05:34:34.849Z,11.90
2018-05-08T05:37:02.386Z,12.10
2018-05-08T05:39:29.902Z,12.20
2018-05-08T05:41:57.433Z,12.40
2018-05-08T05:44:24.976Z,12.60
2018-05-08T05:46:52.621Z,12.70
2018-05-08T05:49:20.136Z,12.80
2018-05-08T05:51:47.773Z,12.90
2018-05-08T05:54:15.301Z,13.20
2018-05-08T05:56:42.822Z,13.50
2018-05-08T05:59:10.353Z,13.90
2018-05-08T06:01:37.965Z,14.30
2018-05-08T06:04:05.502Z,14.70
2018-05-08T06:06:33.014Z,15.50
2018-05-08T06:09:00.552Z,16.30
2018-05-08T06:11:28.181Z,16.80
2018-05-08T06:13:55.773Z,17.40
2018-05-08T06:16:23.306Z,17.70
2018-05-08T06:18:50.884Z,18.30
2018-05-08T06:21:18.386Z,19.30
2018-05-08T06:23:45.939Z,19.80
2018-05-08T06:26:13.851Z,21.40
2018-05-08T06:28:41.377Z,21.40
2018-05-08T06:31:08.933Z,22.20
2018-05-08T06:33:36.457Z,22.20
2018-05-08T06:36:03.994Z,22.20
2018-05-08T06:38:31.609Z,22.10
2018-05-08T06:40:59.281Z,22.10
2018-05-08T06:43:26.957Z,21.60
2018-05-08T06:45:54.494Z,22.00
2018-05-08T06:48:22.047Z,22.90
2018-05-08T06:50:49.815Z,23.80
2018-05-08T06:53:17.310Z,24.40
2018-05-08T06:55:44.867Z,24.50
2018-05-08T06:58:12.405Z,25.10
2018-05-08T07:00:39.946Z,25.80
2018-05-08T07:03:07.493Z,25.80
2018-05-08T07:05:35.048Z,25.30
2018-05-08T07:08:02.705Z,25.10
2018-05-08T07:10:30.240Z,25.00
2018-05-08T07:12:58.144Z,23.30
2018-05-08T07:15:25.896Z,23.30
2018-05-08T07:17:53.389Z,23.60
2018-05-08T07:20:20.918Z,24.00
2018-05-08T07:22:48.430Z,24.80
2018-05-08T07:25:15.969Z,24.20
2018-05-08T07:27:43.870Z,23.90
2018-05-08T07:30:11.411Z,23.90
2018-05-08T07:32:38.920Z,23.80
2018-05-08T07:35:06.474Z,23.60
2018-05-08T07:37:34.407Z,22.80
2018-05-08T07:40:01.933Z,22.70
2018-05-08T07:42:29.841Z,22.90
2018-05-08T07:44:57.590Z,22.90
2018-05-08T07:47:25.250Z,23.70
2018-05-08T07:49:52.827Z,24.60
2018-05-08T07:52:20.310Z,24.60
2018-05-08T07:54:47.849Z,24.80
2018-05-08T07:57:15.349Z,24.90
2018-05-08T07:59:42.866Z,24.10
2018-05-08T08:02:10.409Z,24.10
2018-05-08T08:04:37.924Z,24.60
2018-05-08T08:07:05.481Z,24.70
2018-05-08T08:09:32.993Z,26.10
2018-05-08T08:12:00.535Z,28.10
2018-05-08T08:14:28.033Z,29.50
2018-05-08T08:16:55.714Z,30.30
2018-05-08T08:19:23.374Z,30.40
2018-05-08T08:21:51.038Z,29.60
2018-05-08T08:24:18.557Z,29.40
2018-05-08T08:26:46.486Z,29.70
2018-05-08T08:29:14.007Z,28.60
2018-05-08T08:31:41.538Z,28.60
2018-05-08T08:34:09.058Z,29.40
2018-05-08T08:36:36.769Z,30.80
2018-05-08T08:39:04.269Z,31.40
2018-05-08T08:41:31.808Z,31.00
2018-05-08T08:43:59.348Z,29.20
2018-05-08T08:46:26.890Z,27.40
2018-05-08T08:48:54.395Z,27.40
2018-05-08T08:51:21.954Z,28.20
2018-05-08T08:53:49.485Z,28.00
2018-05-08T08:56:17.029Z,27.60
2018-05-08T08:58:44.537Z,26.20
2018-05-08T09:01:12.078Z,25.90
2018-05-08T09:03:39.638Z,26.70
2018-05-08T09:06:07.189Z,27.00
2018-05-08T09:08:34.930Z,27.70
2018-05-08T09:11:02.477Z,28.80
2018-05-08T09:13:30.018Z,29.30
2018-05-08T09:15:57.537Z,28.90
2018-05-08T09:18:25.550Z,27.10
2018-05-08T09:20:53.061Z,26.90
2018-05-08T09:23:21.001Z,26.60
2018-05-08T09:25:48.765Z,26.30
2018-05-08T09:28:16.390Z,26.50
2018-05-08T09:30:43.894Z,26.60
2018-05-08T09:33:11.515Z,27.60
2018-05-08T09:35:39.173Z,28.60
2018-05-08T09:38:07.029Z,29.20
2018-05-08T09:40:34.532Z,29.00
2018-05-08T09:43:02.094Z,28.60
2018-05-08T09:45:29.610Z,27.90
2018-05-08T09:47:57.145Z,27.00
2018-05-08T09:50:24.668Z,26.30
2018-05-08T09:52:52.361Z,26.60
2018-05-08T09:55:20.033Z,26.20
2018-05-08T09:57:47.578Z,25.60
2018-05-08T10:00:15.082Z,25.80
2018-05-08T10:02:42.776Z,25.90
2018-05-08T10:05:10.294Z,25.80
2018-05-08T10:07:37.903Z,26.50
2018-05-08T10:10:05.424Z,28.00
2018-05-08T10:12:33.357Z,29.40
2018-05-08T10:15:00.876Z,29.40
2018-05-08T10:17:28.433Z,29.10
2018-05-08T10:19:55.933Z,28.60
2018-05-08T10:22:23.452Z,29.20
2018-05-08T10:24:51.121Z,30.10
2018-05-08T10:27:18.772Z,30.20
2018-05-08T10:29:46.305Z,30.00
2018-05-08T10:32:13.885Z,29.10
2018-05-08T10:34:41.422Z,28.10
2018-05-08T10:37:08.992Z,27.50
2018-05-08T10:39:36.548Z,27.40
2018-05-08T10:42:04.069Z,27.70
2018-05-08T10:44:32.173Z,27.20
2018-05-08T10:46:59.706Z,27.20
2018-05-08T10:49:27.285Z,27.00
2018-05-08T10:51:54.943Z,26.80
2018-05-08T10:54:22.481Z,26.00
2018-05-08T10:56:49.996Z,25.40
2018-05-08T10:59:17.552Z,24.70
2018-05-08T11:01:45.125Z,24.10
2018-05-08T11:04:12.638Z,23.70
2018-05-08T11:06:40.280Z,23.10
2018-05-08T11:09:07.793Z,22.90
2018-05-08T11:11:35.730Z,23.10
2018-05-08T11:14:03.237Z,23.00
2018-05-08T11:16:31.741Z,22.90
2018-05-08T11:18:59.257Z,22.70
2018-05-08T11:21:27.252Z,22.40
2018-05-08T11:23:54.755Z,22.40
2018-05-08T11:26:22.294Z,22.40
2018-05-08T11:28:49.806Z,22.50
2018-05-08T11:31:17.334Z,22.40
2018-05-08T11:33:45.243Z,22.40
2018-05-08T11:36:12.813Z,22.40
2018-05-08T11:38:40.320Z,22.40
2018-05-08T11:41:07.859Z,22.50
2018-05-08T11:43:35.608Z,22.50
2018-05-08T11:46:03.141Z,22.70
2018-05-08T11:48:30.693Z,22.70
2018-05-08T11:50:58.369Z,22.50
2018-05-08T11:53:25.886Z,22.60
2018-05-08T11:55:53.460Z,22.50
2018-05-08T11:58:20.965Z,22.50
2018-05-08T12:00:48.941Z,22.50
2018-05-08T12:03:16.446Z,22.50
2018-05-08T12:05:44.016Z,22.60
2018-05-08T12:08:11.553Z,22.60
2018-05-08T12:10:39.213Z,22.60
2018-05-08T12:13:06.849Z,22.50
2018-05-08T12:15:34.378Z,22.50
2018-05-08T12:18:02.389Z,22.50
2018-05-08T12:20:29.900Z,22.50
2018-05-08T12:22:57.898Z,22.40
2018-05-08T12:25:25.452Z,22.40
2018-05-08T12:27:53.021Z,22.20
2018-05-08T12:30:20.576Z,22.10
2018-05-08T12:32:48.116Z,22.00
2018-05-08T12:35:15.793Z,22.40
2018-05-08T12:37:43.317Z,22.50
2018-05-08T12:40:11.222Z,22.40
2018-05-08T12:42:38.766Z,22.40
2018-05-08T12:45:06.273Z,22.30
2018-05-08T12:47:33.867Z,22.20
2018-05-08T12:50:01.408Z,22.20
2018-05-08T12:52:29.316Z,22.40
2018-05-08T12:54:56.865Z,22.40
2018-05-08T12:57:24.382Z,22.40
2018-05-08T12:59:51.922Z,22.40
2018-05-08T13:02:19.631Z,22.50
2018-05-08T13:04:47.161Z,22.40
2018-05-08T13:07:14.751Z,22.40
2018-05-08T13:09:42.382Z,22.20
2018-05-08T13:12:10.050Z,22.00
2018-05-08T13:14:37.611Z,22.10
2018-05-08T13:17:05.375Z,22.30
2018-05-08T13:19:33.238Z,22.20
2018-05-08T13:22:00.774Z,22.20
2018-05-08T13:24:28.298Z,22.10
2018-05-08T13:26:55.854Z,22.10
2018-05-08T13:29:23.381Z,22.20
2018-05-08T13:31:50.966Z,22.40
2018-05-08T13:34:18.478Z,22.40
2018-05-08T13:36:46.058Z,22.40
2018-05-08T13:39:13.707Z,22.40
2018-05-08T13:41:41.342Z,22.40
2018-05-08T13:44:08.866Z,22.30
2018-05-08T13:46:36.812Z,22.30
2018-05-08T13:49:04.351Z,22.30
2018-05-08T13:51:31.992Z,22.40
2018-05-08T13:53:59.521Z,22.40
2018-05-08T13:56:27.068Z,22.40
2018-05-08T13:58:54.569Z,22.40
2018-05-08T14:01:22.131Z,22.40
2018-05-08T14:03:49.664Z,22.30
2018-05-08T14:06:17.190Z,22.30
2018-05-08T14:08:44.736Z,22.40
2018-05-08T14:11:12.236Z,22.30
2018-05-08T14:13:39.779Z,22.40
2018-05-08T14:16:07.281Z,22.30
2018-05-08T14:18:34.821Z,22.20
2018-05-08T14:21:02.340Z,22.30
2018-05-08T14:23:29.889Z,22.30
2018-05-08T14:25:57.563Z,22.10
2018-05-08T14:28:25.161Z,22.10
2018-05-08T14:30:52.716Z,22.30
2018-05-08T14:33:20.245Z,22.30
2018-05-08T14:35:47.781Z,22.40
2018-05-08T14:38:15.452Z,22.40
2018-05-08T14:40:42.969Z,22.40
2018-05-08T14:43:10.903Z,22.30
2018-05-08T14:45:38.430Z,22.20
2018-05-08T14:48:05.966Z,22.20
2018-05-08T14:50:33.483Z,22.20
2018-05-08T14:53:01.025Z,22.20
2018-05-08T14:55:28.647Z,22.10
2018-05-08T14:57:56.224Z,22.00
2018-05-08T15:00:23.740Z,22.10
2018-05-08T15:02:51.281Z,22.10
2018-05-08T15:05:19.209Z,22.20
2018-05-08T15:07:46.727Z,22.20
2018-05-08T15:10:14.268Z,22.20
2018-05-08T15:12:42.174Z,22.30
2018-05-08T15:15:09.718Z,22.30
2018-05-08T15:17:37.247Z,22.30
2018-05-08T15:20:05.194Z,22.10
2018-05-08T15:22:32.718Z,22.10
2018-05-08T15:25:00.248Z,22.10
2018-05-08T15:27:27.801Z,22.10
2018-05-08T15:29:55.359Z,22.20
2018-05-08T15:32:22.856Z,22.10
2018-05-08T15:34:50.414Z,21.90
2018-05-08T15:37:17.936Z,22.00
2018-05-08T15:39:45.498Z,22.00
2018-05-08T15:42:13.151Z,22.10
2018-05-08T15:44:40.681Z,22.00
2018-05-08T15:47:08.275Z,22.00
2018-05-08T15:49:35.739Z,22.00
2018-05-08T15:52:03.276Z,22.10
2018-05-08T15:54:30.825Z,21.90
2018-05-08T15:56:58.385Z,21.90
2018-05-08T15:59:25.906Z,21.80
2018-05-08T16:01:53.469Z,21.70
2018-05-08T16:04:20.991Z,21.70
2018-05-08T16:06:48.518Z,21.80
2018-05-08T16:09:16.045Z,21.70
2018-05-08T16:11:43.615Z,21.60
2018-05-08T16:14:11.139Z,21.60
2018-05-08T16:16:39.135Z,21.50
2018-05-08T16:19:06.657Z,21.50
2018-05-08T16:21:34.601Z,21.60
2018-05-08T16:24:02.125Z,21.60
2018-05-08T16:26:29.673Z,21.60
2018-05-08T16:28:57.211Z,21.60
2018-05-08T16:31:24.770Z,21.50
2018-05-08T16:33:52.298Z,21.50
2018-05-08T16:36:19.856Z,21.50
2018-05-08T16:38:47.754Z,21.60
2018-05-08T16:41:15.314Z,21.60
2018-05-08T16:43:42.977Z,21.70
2018-05-08T16:46:10.539Z,21.70
2018-05-08T16:48:38.061Z,21.70
2018-05-08T16:51:05.758Z,21.70
2018-05-08T16:53:33.265Z,21.70
2018-05-08T16:56:01.206Z,21.70
2018-05-08T16:58:28.741Z,21.70
2018-05-08T17:00:56.285Z,21.60
2018-05-08T17:03:23.797Z,21.60
2018-05-08T17:05:51.359Z,21.50
2018-05-08T17:08:18.878Z,21.40
2018-05-08T17:10:46.747Z,21.40
2018-05-08T17:13:14.274Z,21.40
2018-05-08T17:15:41.810Z,21.30
2018-05-08T17:18:09.390Z,21.30
2018-05-08T17:20:37.050Z,21.20
2018-05-08T17:23:04.709Z,21.20
2018-05-08T17:25:32.365Z,21.20
2018-05-08T17:27:59.914Z,21.20
2018-05-08T17:30:27.437Z,21.20
2018-05-08T17:32:54.970Z,21.20
2018-05-08T17:35:22.479Z,21.20
2018-05-08T17:37:50.033Z,21.20
2018-05-08T17:40:17.553Z,21.20
2018-05-08T17:42:45.486Z,20.80
2018-05-08T17:45:13.029Z,20.80
2018-05-08T17:47:41.531Z,20.70
2018-05-08T17:50:09.050Z,20.70
2018-05-08T17:52:36.575Z,20.70
2018-05-08T17:55:04.259Z,20.50
2018-05-08T17:57:32.208Z,20.40
2018-05-08T17:59:59.664Z,20.20
2018-05-08T18:02:27.221Z,20.10
2018-05-08T18:04:54.736Z,20.10
2018-05-08T18:07:22.281Z,20.00
2018-05-08T18:09:49.798Z,19.90
2018-05-08T18:12:17.335Z,19.90
2018-05-08T18:14:44.916Z,19.80
2018-05-08T18:17:12.488Z,19.60
2018-05-08T18:19:40.009Z,19.50
2018-05-08T18:22:07.551Z,19.30
2018-05-08T18:24:35.069Z,19.10
2018-05-08T18:27:02.633Z,19.00
2018-05-08T18:29:30.318Z,18.90
2018-05-08T18:31:58.267Z,18.70
2018-05-08T18:34:26.079Z,18.60
2018-05-08T18:36:53.513Z,18.50
2018-05-08T18:39:21.057Z,18.50
2018-05-08T18:41:49.057Z,18.50
2018-05-08T18:44:16.601Z,18.50
2018-05-08T18:46:44.111Z,18.40
2018-05-08T18:49:11.672Z,18.30
2018-05-08T18:51:39.398Z,18.10
2018-05-08T18:54:07.049Z,18.00
2018-05-08T18:56:34.560Z,18.00
2018-05-08T18:59:02.498Z,17.70
2018-05-08T19:01:30.032Z,17.70
2018-05-08T19:03:57.692Z,17.60
2018-05-08T19:06:25.278Z,17.50
2018-05-08T19:08:52.838Z,17.40
2018-05-08T19:11:26.070Z,17.40
2018-05-08T19:13:53.624Z,17.30
2018-05-08T19:16:21.265Z,17.10
2018-05-08T19:18:54.539Z,17.10
2018-05-08T19:21:22.657Z,16.90
2018-05-08T19:23:55.818Z,16.90
2018-05-08T19:26:23.354Z,16.70
2018-05-08T19:28:57.073Z,16.60
2018-05-08T19:31:24.745Z,16.60
2018-05-08T19:33:52.300Z,16.50
2018-05-08T19:36:25.554Z,16.40
2018-05-08T19:38:53.575Z,16.30
2018-05-08T19:41:21.162Z,16.30
2018-05-08T19:43:48.724Z,16.30
2018-05-08T19:46:16.238Z,16.10
2018-05-08T19:48:43.999Z,16.10
2018-05-08T19:51:11.566Z,16.00
2018-05-08T19:53:39.141Z,15.90
2018-05-08T19:56:06.784Z,15.90
2018-05-08T19:58:34.285Z,15.80
2018-05-08T20:01:01.852Z,15.70
2018-05-08T20:03:29.550Z,15.60
2018-05-08T20:05:57.102Z,15.60
2018-05-08T20:08:24.643Z,15.50
2018-05-08T20:10:52.244Z,15.50
2018-05-08T20:13:19.772Z,15.40
2018-05-08T20:15:47.436Z,15.40
2018-05-08T20:18:14.948Z,15.30
2018-05-08T20:20:42.888Z,15.30
2018-05-08T20:23:10.416Z,15.30
2018-05-08T20:25:37.959Z,15.30
2018-05-08T20:28:05.469Z,15.30
2018-05-08T20:30:33.104Z,15.20
2018-05-08T20:33:01.230Z,15.20
2018-05-08T20:35:28.750Z,15.20
2018-05-08T20:37:56.361Z,15.30
2018-05-08T20:40:23.905Z,15.20
2018-05-08T20:42:51.430Z,15.20
2018-05-08T20:45:19.130Z,15.10
2018-05-08T20:47:46.651Z,15.10
2018-05-08T20:50:14.589Z,15.00
2018-05-08T20:52:42.133Z,15.00
2018-05-08T20:55:09.682Z,15.00
2018-05-08T20:57:37.218Z,14.90
2018-05-08T21:00:04.756Z,14.90
2018-05-08T21:02:32.256Z,14.90
2018-05-08T21:04:59.857Z,14.90
2018-05-08T21:07:27.364Z,14.80
2018-05-08T21:09:55.308Z,14.80
2018-05-08T21:12:22.817Z,14.80
2018-05-08T21:14:50.325Z,14.80
2018-05-08T21:17:17.850Z,14.70
2018-05-08T21:19:45.545Z,14.70
2018-05-08T21:22:13.109Z,14.70
2018-05-08T21:24:40.654Z,14.60
2018-05-08T21:27:08.217Z,14.60
2018-05-08T21:29:41.285Z,14.50
2018-05-08T21:32:08.942Z,14.50
2018-05-08T21:34:36.573Z,14.40
2018-05-08T21:37:04.128Z,14.40
2018-05-08T21:39:32.035Z,14.30
2018-05-08T21:41:59.594Z,14.30
2018-05-08T21:44:27.113Z,14.30
2018-05-08T21:46:54.704Z,14.30
2018-05-08T21:49:22.365Z,14.20
2018-05-08T21:51:49.922Z,14.20
2018-05-08T21:54:17.462Z,14.10
2018-05-08T21:56:45.026Z,13.90
2018-05-08T21:59:12.541Z,13.80
2018-05-08T22:01:40.274Z,13.60
2018-05-08T22:04:07.804Z,13.60
2018-05-08T22:06:35.517Z,13.60
2018-05-08T22:09:03.115Z,13.60
2018-05-08T22:11:30.617Z,13.70
2018-05-08T22:13:58.169Z,13.70
2018-05-08T22:16:25.695Z,13.70
2018-05-08T22:18:53.428Z,13.60
2018-05-08T22:21:21.301Z,13.60
2018-05-08T22:23:48.842Z,13.60
2018-05-08T22:26:16.414Z,13.60
2018-05-08T22:28:44.253Z,13.60
2018-05-08T22:31:11.772Z,13.60
2018-05-08T22:33:39.302Z,13.50
2018-05-08T22:36:06.813Z,13.50
2018-05-08T22:38:34.512Z,13.40
2018-05-08T22:41:02.485Z,13.40
2018-05-08T22:43:30.019Z,13.40
2018-05-08T22:45:57.528Z,13.40
2018-05-08T22:48:25.136Z,13.40
2018-05-08T22:50:52.669Z,13.40
2018-05-08T22:53:20.179Z,13.40
2018-05-08T22:55:47.925Z,13.30
2018-05-08T22:58:15.603Z,13.30
2018-05-08T23:00:43.136Z,13.30
2018-05-08T23:03:10.637Z,13.20
2018-05-08T23:05:38.338Z,13.20
2018-05-08T23:08:05.854Z,13.10
2018-05-08T23:10:33.810Z,13.10
2018-05-08T23:13:01.337Z,13.10
2018-05-08T23:15:28.883Z,13.10
2018-05-08T23:17:56.393Z,13.10
2018-05-08T23:20:24.089Z,13.10
2018-05-08T23:22:51.751Z,13.10
2018-05-08T23:25:19.310Z,13.10
2018-05-08T23:27:46.838Z,13.10
2018-05-08T23:30:14.364Z,13.10
2018-05-08T23:32:41.891Z,13.10
2018-05-08T23:35:09.447Z,12.90
2018-05-08T23:37:36.958Z,13.00
2018-05-08T23:40:04.542Z,13.00
2018-05-08T23:42:32.258Z,13.00
2018-05-08T23:45:00.330Z,12.70
2018-05-08T23:47:28.258Z,12.60
2018-05-08T23:49:55.817Z,12.60
2018-05-08T23:52:23.458Z,12.70
2018-05-08T23:54:51.002Z,12.70
2018-05-08T23:57:18.509Z,12.70
2018-05-08T23:59:46.045Z,12.70
